Aérodrome :
LOGIN :

S'inscrire | Disclaimer

   EN    FR    IT 

 










Légende :    VFR   VFR Marginal   IFR   IFR Intensif   IFR Très Intensif
Visi : 
Plafond : 
>= 8 km
>= 3000ft
5 à 8 km
1000 à 3000 ft
1500m à 5 km
500 à 1000 ft
800 à 1500m
200 à 500 ft
< 800m
< 200 ft
Symboles :   Orages  Brouillard  Fortes neiges  Fortes précipitations  Vent > 20 kt
SIGMETs :   Divers  Orages  Givrage  Turbulence  Onde Orograph.  Cendres Volcan.






- Altitude de l'aérodrome : 26 ft


ETNT - Wittmundhaven AB

DERNIER METAR :
  • 150820Z 24021G37KT 9999 FEW021 08/03 Q0988 BLU+

METARs EXPIRÉS :
  • 150734Z 23019G35KT 9999 BKN017 08/05 Q0987 WHT
  • 150720Z 23019G30KT 9999 BKN015 SCT032 08/05 Q0986 RERA WHT
  • 150620Z 20015KT 9999 BKN015 07/05 Q0986 RERA WHT
  • 150532Z 18015KT 9999 -RA BKN014 BKN040 05/04 Q0986 RERA GRN

TAF TAF ETNT
Valide du 15 à 09h jusqu'au 15 à 18h UTC


150810Z 1509/1518 22015G25KT 9999 NSW SCT015 SCT040
TEMPO 1509/1512 22020G40KT 5000 -SHRA BKN012TCU
PROB30 1509/1512 23025G45KT 3000 SHRA BKN006 BKN020CB
TEMPO 1512/1518 24020G35KT 4000 SHRA BKN010 BKN020CB BY ETGL



MET'MAP, la Météo Aéronautique d'un coup d'oeil ! - Copyright ORBIFLY Décembre 2007 - Disclaimer

ORBIFLY MET'MAP TEAM :

Programmation & Développement : Alexandra Zaïnal
Sur une idée originale de : Baudouin d'Aumeries
Assistance à la programmation : Marc-Olivier Méhu
Soutien technique & logistique : Manuel Goepfert

Contact : metmap@orbifly.com




SOURCES & CREDITS :

   NOAA